sensor_id;sensor_type;location;lat;lon;timestamp;pressure;altitude;pressure_sealevel;temperature;humidity
64095;BME280;50353;51.420;5.682;2023-03-03T00:00:16;102095.22;;;1.60;88.41
64095;BME280;50353;51.420;5.682;2023-03-03T00:02:41;102092.66;;;1.39;89.61
64095;BME280;50353;51.420;5.682;2023-03-03T00:05:07;102087.50;;;1.15;91.07
64095;BME280;50353;51.420;5.682;2023-03-03T00:07:32;102101.31;;;1.50;90.42
64095;BME280;50353;51.420;5.682;2023-03-03T00:09:57;102091.84;;;1.26;91.08
64095;BME280;50353;51.420;5.682;2023-03-03T00:12:23;102093.53;;;1.27;90.59
64095;BME280;50353;51.420;5.682;2023-03-03T00:14:49;102096.16;;;1.42;89.44
64095;BME280;50353;51.420;5.682;2023-03-03T00:17:28;102092.63;;;1.51;89.24
64095;BME280;50353;51.420;5.682;2023-03-03T00:19:53;102099.59;;;1.61;87.58
64095;BME280;50353;51.420;5.682;2023-03-03T00:22:36;102098.75;;;1.27;88.35
64095;BME280;50353;51.420;5.682;2023-03-03T00:27:46;102100.50;;;1.29;89.21
64095;BME280;50353;51.420;5.682;2023-03-03T00:30:24;102107.47;;;1.24;91.39
64095;BME280;50353;51.420;5.682;2023-03-03T00:32:50;102109.13;;;1.65;90.39
64095;BME280;50353;51.420;5.682;2023-03-03T00:35:31;102113.41;;;1.85;89.33
64095;BME280;50353;51.420;5.682;2023-03-03T00:38:00;102115.25;;;1.32;92.15
64095;BME280;50353;51.420;5.682;2023-03-03T00:40:26;102119.50;;;1.79;90.19
64095;BME280;50353;51.420;5.682;2023-03-03T00:42:56;102121.31;;;1.57;91.27
64095;BME280;50353;51.420;5.682;2023-03-03T00:45:26;102114.31;;;1.72;91.48
64095;BME280;50353;51.420;5.682;2023-03-03T00:47:52;102125.69;;;1.26;93.70
64095;BME280;50353;51.420;5.682;2023-03-03T00:52:55;102136.03;;;1.67;92.63
64095;BME280;50353;51.420;5.682;2023-03-03T00:55:22;102135.22;;;1.24;94.00
64095;BME280;50353;51.420;5.682;2023-03-03T00:57:48;102130.03;;;1.24;95.53
64095;BME280;50353;51.420;5.682;2023-03-03T01:00:13;102141.31;;;1.37;94.73
64095;BME280;50353;51.420;5.682;2023-03-03T01:02:38;102132.59;;;1.65;93.94
64095;BME280;50353;51.420;5.682;2023-03-03T01:05:04;102133.47;;;1.33;94.06
64095;BME280;50353;51.420;5.682;2023-03-03T01:07:29;102136.97;;;1.14;95.26
64095;BME280;50353;51.420;5.682;2023-03-03T01:09:54;102147.38;;;1.57;94.18
64095;BME280;50353;51.420;5.682;2023-03-03T01:12:19;102135.22;;;1.44;94.75
64095;BME280;50353;51.420;5.682;2023-03-03T01:14:45;102140.44;;;0.96;94.90
64095;BME280;50353;51.420;5.682;2023-03-03T01:17:10;102135.22;;;0.85;95.72
64095;BME280;50353;51.420;5.682;2023-03-03T01:19:35;102131.78;;;0.98;96.44
64095;BME280;50353;51.420;5.682;2023-03-03T01:22:00;102134.38;;;1.11;96.03
64095;BME280;50353;51.420;5.682;2023-03-03T01:24:26;102131.75;;;1.03;96.57
64095;BME280;50353;51.420;5.682;2023-03-03T01:26:51;102132.59;;;1.58;94.38
64095;BME280;50353;51.420;5.682;2023-03-03T01:29:16;102142.19;;;1.45;94.12
64095;BME280;50353;51.420;5.682;2023-03-03T01:31:41;102137.84;;;1.17;94.55
64095;BME280;50353;51.420;5.682;2023-03-03T01:34:06;102138.69;;;1.46;94.34
64095;BME280;50353;51.420;5.682;2023-03-03T01:36:32;102138.69;;;1.30;94.88
64095;BME280;50353;51.420;5.682;2023-03-03T01:38:58;102139.56;;;1.25;95.22
64095;BME280;50353;51.420;5.682;2023-03-03T01:41:25;102143.03;;;1.53;94.24
64095;BME280;50353;51.420;5.682;2023-03-03T01:43:52;102140.44;;;1.24;93.93
64095;BME280;50353;51.420;5.682;2023-03-03T01:48:50;102151.66;;;0.65;96.23
64095;BME280;50353;51.420;5.682;2023-03-03T01:53:44;102155.13;;;0.71;94.94
64095;BME280;50353;51.420;5.682;2023-03-03T01:56:10;102157.72;;;0.50;96.67
64095;BME280;50353;51.420;5.682;2023-03-03T01:58:36;102156.84;;;0.64;96.17
64095;BME280;50353;51.420;5.682;2023-03-03T02:01:08;102145.63;;;0.70;95.93
64095;BME280;50353;51.420;5.682;2023-03-03T02:03:35;102146.53;;;0.89;95.63
64095;BME280;50353;51.420;5.682;2023-03-03T02:06:05;102142.19;;;0.86;94.91
64095;BME280;50353;51.420;5.682;2023-03-03T02:11:26;102141.28;;;0.81;95.06
64095;BME280;50353;51.420;5.682;2023-03-03T02:13:53;102133.47;;;0.67;96.07
64095;BME280;50353;51.420;5.682;2023-03-03T02:16:19;102139.53;;;0.80;95.41
64095;BME280;50353;51.420;5.682;2023-03-03T02:18:44;102137.81;;;1.02;93.39
64095;BME280;50353;51.420;5.682;2023-03-03T02:21:10;102138.69;;;0.96;94.55
64095;BME280;50353;51.420;5.682;2023-03-03T02:23:49;102136.91;;;0.71;95.31
64095;BME280;50353;51.420;5.682;2023-03-03T02:26:18;102143.03;;;0.71;95.74
64095;BME280;50353;51.420;5.682;2023-03-03T02:28:47;102143.91;;;0.89;96.07
64095;BME280;50353;51.420;5.682;2023-03-03T02:31:13;102142.19;;;1.15;93.79
64095;BME280;50353;51.420;5.682;2023-03-03T02:33:43;102149.13;;;1.12;94.19
64095;BME280;50353;51.420;5.682;2023-03-03T02:36:12;102150.81;;;0.74;94.60
64095;BME280;50353;51.420;5.682;2023-03-03T02:38:40;102147.38;;;1.14;94.38
64095;BME280;50353;51.420;5.682;2023-03-03T02:41:10;102148.25;;;1.04;94.63
64095;BME280;50353;51.420;5.682;2023-03-03T02:46:14;102149.09;;;0.78;94.99
64095;BME280;50353;51.420;5.682;2023-03-03T02:48:39;102150.78;;;0.60;96.37
64095;BME280;50353;51.420;5.682;2023-03-03T02:51:04;102149.84;;;0.37;97.61
64095;BME280;50353;51.420;5.682;2023-03-03T02:53:30;102144.63;;;0.37;97.32
64095;BME280;50353;51.420;5.682;2023-03-03T02:55:55;102153.38;;;0.56;96.96
64095;BME280;50353;51.420;5.682;2023-03-03T02:58:20;102145.63;;;0.74;96.53
64095;BME280;50353;51.420;5.682;2023-03-03T03:00:45;102146.47;;;0.70;96.20
64095;BME280;50353;51.420;5.682;2023-03-03T03:03:13;102148.19;;;0.66;96.08
64095;BME280;50353;51.420;5.682;2023-03-03T03:05:39;102147.34;;;0.63;96.09
64095;BME280;50353;51.420;5.682;2023-03-03T03:08:04;102153.34;;;0.45;96.85
64095;BME280;50353;51.420;5.682;2023-03-03T03:10:29;102153.38;;;0.49;96.60
64095;BME280;50353;51.420;5.682;2023-03-03T03:12:54;102158.59;;;0.59;95.83
64095;BME280;50353;51.420;5.682;2023-03-03T03:15:20;102155.16;;;0.66;97.04
64095;BME280;50353;51.420;5.682;2023-03-03T03:17:45;102143.88;;;0.73;95.59
64095;BME280;50353;51.420;5.682;2023-03-03T03:20:10;102151.69;;;0.86;95.00
64095;BME280;50353;51.420;5.682;2023-03-03T03:22:35;102151.69;;;0.76;95.73
64095;BME280;50353;51.420;5.682;2023-03-03T03:25:01;102157.78;;;0.86;95.92
64095;BME280;50353;51.420;5.682;2023-03-03T03:27:26;102158.66;;;0.99;94.48
64095;BME280;50353;51.420;5.682;2023-03-03T03:29:51;102163.91;;;1.17;93.40
64095;BME280;50353;51.420;5.682;2023-03-03T03:32:16;102171.72;;;1.31;93.82
64095;BME280;50353;51.420;5.682;2023-03-03T03:34:42;102169.03;;;0.74;96.29
64095;BME280;50353;51.420;5.682;2023-03-03T03:37:07;102170.81;;;1.03;94.92
64095;BME280;50353;51.420;5.682;2023-03-03T03:39:33;102180.31;;;0.75;96.27
64095;BME280;50353;51.420;5.682;2023-03-03T03:41:59;102176.91;;;0.94;94.77
64095;BME280;50353;51.420;5.682;2023-03-03T03:44:24;102175.09;;;0.72;96.95
64095;BME280;50353;51.420;5.682;2023-03-03T03:46:49;102169.97;;;1.24;94.59
64095;BME280;50353;51.420;5.682;2023-03-03T03:49:14;102171.72;;;1.17;94.44
64095;BME280;50353;51.420;5.682;2023-03-03T03:51:39;102179.47;;;0.82;95.94
64095;BME280;50353;51.420;5.682;2023-03-03T03:54:06;102175.16;;;0.92;95.50
64095;BME280;50353;51.420;5.682;2023-03-03T03:56:31;102181.19;;;0.81;95.11
64095;BME280;50353;51.420;5.682;2023-03-03T03:58:56;102170.81;;;0.97;95.52
64095;BME280;50353;51.420;5.682;2023-03-03T04:01:21;102173.41;;;0.89;94.00
64095;BME280;50353;51.420;5.682;2023-03-03T04:03:47;102175.16;;;0.90;93.46
64095;BME280;50353;51.420;5.682;2023-03-03T04:06:13;102182.06;;;0.88;94.82
64095;BME280;50353;51.420;5.682;2023-03-03T04:08:38;102184.59;;;0.48;95.84
64095;BME280;50353;51.420;5.682;2023-03-03T04:11:03;102172.44;;;0.52;96.38
64095;BME280;50353;51.420;5.682;2023-03-03T04:13:28;102179.44;;;0.70;95.75
64095;BME280;50353;51.420;5.682;2023-03-03T04:15:56;102184.63;;;0.62;95.50
64095;BME280;50353;51.420;5.682;2023-03-03T04:18:21;102178.59;;;0.95;95.30
64095;BME280;50353;51.420;5.682;2023-03-03T04:20:46;102177.75;;;0.89;95.40
64095;BME280;50353;51.420;5.682;2023-03-03T04:23:11;102167.28;;;0.76;95.36
64095;BME280;50353;51.420;5.682;2023-03-03T04:25:37;102172.47;;;0.62;97.19
64095;BME280;50353;51.420;5.682;2023-03-03T04:28:02;102174.25;;;0.87;96.09
64095;BME280;50353;51.420;5.682;2023-03-03T04:30:27;102180.34;;;0.99;95.75
64095;BME280;50353;51.420;5.682;2023-03-03T04:32:52;102181.19;;;0.84;95.46
64095;BME280;50353;51.420;5.682;2023-03-03T04:35:17;102168.19;;;0.84;96.07
64095;BME280;50353;51.420;5.682;2023-03-03T04:37:43;102178.63;;;1.05;94.63
64095;BME280;50353;51.420;5.682;2023-03-03T04:40:08;102184.69;;;0.83;95.01
64095;BME280;50353;51.420;5.682;2023-03-03T04:42:34;102169.91;;;0.72;96.18
64095;BME280;50353;51.420;5.682;2023-03-03T04:44:59;102178.63;;;0.89;95.67
64095;BME280;50353;51.420;5.682;2023-03-03T04:47:24;102178.53;;;0.55;97.33
64095;BME280;50353;51.420;5.682;2023-03-03T04:49:50;102182.97;;;0.95;96.13
64095;BME280;50353;51.420;5.682;2023-03-03T04:52:15;102182.94;;;0.86;96.41
64095;BME280;50353;51.420;5.682;2023-03-03T04:54:40;102178.63;;;1.15;94.84
64095;BME280;50353;51.420;5.682;2023-03-03T04:57:05;102184.69;;;0.94;95.76
64095;BME280;50353;51.420;5.682;2023-03-03T04:59:31;102189.03;;;0.94;95.67
64095;BME280;50353;51.420;5.682;2023-03-03T05:01:57;102187.31;;;1.00;95.46
64095;BME280;50353;51.420;5.682;2023-03-03T05:04:22;102189.06;;;0.98;95.85
64095;BME280;50353;51.420;5.682;2023-03-03T05:06:47;102183.81;;;0.92;96.07
64095;BME280;50353;51.420;5.682;2023-03-03T05:09:12;102191.63;;;0.86;96.57
64095;BME280;50353;51.420;5.682;2023-03-03T05:11:37;102188.19;;;1.12;94.75
64095;BME280;50353;51.420;5.682;2023-03-03T05:14:02;102189.94;;;1.08;95.83
64095;BME280;50353;51.420;5.682;2023-03-03T05:16:28;102193.41;;;1.12;94.98
64095;BME280;50353;51.420;5.682;2023-03-03T05:18:53;102190.81;;;1.15;94.68
64095;BME280;50353;51.420;5.682;2023-03-03T05:21:19;102189.94;;;1.28;94.50
64095;BME280;50353;51.420;5.682;2023-03-03T05:23:44;102190.78;;;1.01;94.40
64095;BME280;50353;51.420;5.682;2023-03-03T05:26:09;102196.84;;;1.00;94.71
64095;BME280;50353;51.420;5.682;2023-03-03T05:28:34;102188.19;;;1.16;94.27
64095;BME280;50353;51.420;5.682;2023-03-03T05:30:59;102188.16;;;0.89;95.74
64095;BME280;50353;51.420;5.682;2023-03-03T05:33:25;102186.44;;;1.06;95.39
64095;BME280;50353;51.420;5.682;2023-03-03T05:35:53;102192.50;;;0.87;95.74
64095;BME280;50353;51.420;5.682;2023-03-03T05:38:19;102195.06;;;0.74;96.40
64095;BME280;50353;51.420;5.682;2023-03-03T05:40:44;102195.97;;;0.93;96.40
64095;BME280;50353;51.420;5.682;2023-03-03T05:43:11;102205.53;;;1.13;95.42
64095;BME280;50353;51.420;5.682;2023-03-03T05:45:36;102200.28;;;0.76;96.12
64095;BME280;50353;51.420;5.682;2023-03-03T05:48:01;102208.13;;;1.04;95.86
64095;BME280;50353;51.420;5.682;2023-03-03T05:50:27;102203.81;;;1.12;94.92
64095;BME280;50353;51.420;5.682;2023-03-03T05:52:52;102196.81;;;0.74;96.67
64095;BME280;50353;51.420;5.682;2023-03-03T05:55:18;102209.91;;;1.11;95.53
64095;BME280;50353;51.420;5.682;2023-03-03T05:57:43;102204.66;;;1.05;94.13
64095;BME280;50353;51.420;5.682;2023-03-03T06:00:08;102206.44;;;1.30;93.82
64095;BME280;50353;51.420;5.682;2023-03-03T06:02:34;102209.88;;;1.08;94.04
64095;BME280;50353;51.420;5.682;2023-03-03T06:04:59;102215.06;;;1.06;94.81
64095;BME280;50353;51.420;5.682;2023-03-03T06:07:25;102213.25;;;0.68;95.90
64095;BME280;50353;51.420;5.682;2023-03-03T06:09:50;102211.63;;;1.06;94.92
64095;BME280;50353;51.420;5.682;2023-03-03T06:12:15;102215.91;;;0.83;95.56
64095;BME280;50353;51.420;5.682;2023-03-03T06:14:41;102210.75;;;1.05;95.78
64095;BME280;50353;51.420;5.682;2023-03-03T06:17:06;102215.13;;;1.23;94.74
64095;BME280;50353;51.420;5.682;2023-03-03T06:19:31;102221.16;;;0.94;95.52
64095;BME280;50353;51.420;5.682;2023-03-03T06:21:56;102228.13;;;1.40;93.83
64095;BME280;50353;51.420;5.682;2023-03-03T06:24:22;102232.47;;;1.43;93.26
64095;BME280;50353;51.420;5.682;2023-03-03T06:26:49;102228.97;;;1.10;94.00
64095;BME280;50353;51.420;5.682;2023-03-03T06:29:14;102230.72;;;1.11;94.42
64095;BME280;50353;51.420;5.682;2023-03-03T06:31:39;102228.97;;;1.07;94.78
64095;BME280;50353;51.420;5.682;2023-03-03T06:34:04;102228.97;;;1.08;94.83
64095;BME280;50353;51.420;5.682;2023-03-03T06:36:30;102242.91;;;1.27;94.86
64095;BME280;50353;51.420;5.682;2023-03-03T06:38:55;102241.13;;;1.14;94.89
64095;BME280;50353;51.420;5.682;2023-03-03T06:41:20;102242.00;;;1.08;95.55
64095;BME280;50353;51.420;5.682;2023-03-03T06:43:45;102250.69;;;1.06;95.48
64095;BME280;50353;51.420;5.682;2023-03-03T06:46:10;102257.59;;;1.00;96.36
64095;BME280;50353;51.420;5.682;2023-03-03T06:48:36;102258.47;;;1.09;96.56
64095;BME280;50353;51.420;5.682;2023-03-03T06:51:02;102269.78;;;1.17;96.27
64095;BME280;50353;51.420;5.682;2023-03-03T06:53:30;102271.53;;;1.18;96.65
64095;BME280;50353;51.420;5.682;2023-03-03T06:55:56;102269.81;;;1.23;95.68
64095;BME280;50353;51.420;5.682;2023-03-03T06:58:22;102267.19;;;1.31;95.12
64095;BME280;50353;51.420;5.682;2023-03-03T07:00:53;102270.69;;;1.19;95.79
64095;BME280;50353;51.420;5.682;2023-03-03T07:03:26;102268.94;;;1.33;95.83
64095;BME280;50353;51.420;5.682;2023-03-03T07:05:53;102272.41;;;1.28;95.79
64095;BME280;50353;51.420;5.682;2023-03-03T07:08:20;102268.09;;;1.39;95.18
64095;BME280;50353;51.420;5.682;2023-03-03T07:10:46;102282.81;;;1.17;95.64
64095;BME280;50353;51.420;5.682;2023-03-03T07:15:46;102278.53;;;1.42;94.55
64095;BME280;50353;51.420;5.682;2023-03-03T07:19:16;102278.50;;;1.28;94.40
64095;BME280;50353;51.420;5.682;2023-03-03T07:21:21;102280.22;;;1.26;95.43
64095;BME280;50353;51.420;5.682;2023-03-03T07:23:48;102275.81;;;1.00;96.54
64095;BME280;50353;51.420;5.682;2023-03-03T07:26:20;102278.50;;;1.30;95.07
64095;BME280;50353;51.420;5.682;2023-03-03T07:29:33;102276.78;;;1.38;93.92
64095;BME280;50353;51.420;5.682;2023-03-03T07:31:34;102286.31;;;1.33;95.47
64095;BME280;50353;51.420;5.682;2023-03-03T07:34:00;102284.56;;;1.33;95.34
64095;BME280;50353;51.420;5.682;2023-03-03T07:36:29;102295.88;;;1.52;94.85
64095;BME280;50353;51.420;5.682;2023-03-03T07:38:59;102293.28;;;1.48;94.39
64095;BME280;50353;51.420;5.682;2023-03-03T07:41:25;102290.72;;;1.69;93.87
64095;BME280;50353;51.420;5.682;2023-03-03T07:43:52;102296.78;;;1.53;94.03
64095;BME280;50353;51.420;5.682;2023-03-03T07:46:25;102288.09;;;1.76;93.68
64095;BME280;50353;51.420;5.682;2023-03-03T07:48:52;102289.81;;;1.55;94.46
64095;BME280;50353;51.420;5.682;2023-03-03T07:51:21;102300.28;;;1.71;94.34
64095;BME280;50353;51.420;5.682;2023-03-03T07:53:49;102309.81;;;1.67;94.39
64095;BME280;50353;51.420;5.682;2023-03-03T07:56:33;102302.84;;;1.57;95.00
64095;BME280;50353;51.420;5.682;2023-03-03T07:58:58;102311.53;;;1.48;95.62
64095;BME280;50353;51.420;5.682;2023-03-03T08:03:56;102311.56;;;1.71;94.53
64095;BME280;50353;51.420;5.682;2023-03-03T08:06:28;102312.41;;;1.58;94.47
64095;BME280;50353;51.420;5.682;2023-03-03T08:08:59;102315.91;;;1.58;94.71
64095;BME280;50353;51.420;5.682;2023-03-03T08:11:26;102315.00;;;1.47;95.23
64095;BME280;50353;51.420;5.682;2023-03-03T08:13:51;102324.56;;;1.63;93.42
64095;BME280;50353;51.420;5.682;2023-03-03T08:16:20;102312.41;;;1.81;92.33
64095;BME280;50353;51.420;5.682;2023-03-03T08:18:49;102320.25;;;1.78;92.85
64095;BME280;50353;51.420;5.682;2023-03-03T08:21:20;102325.47;;;1.90;92.93
64095;BME280;50353;51.420;5.682;2023-03-03T08:23:46;102327.19;;;1.86;92.55
64095;BME280;50353;51.420;5.682;2023-03-03T08:26:13;102328.06;;;1.96;92.12
64095;BME280;50353;51.420;5.682;2023-03-03T08:28:38;102326.34;;;1.94;91.66
64095;BME280;50353;51.420;5.682;2023-03-03T08:31:04;102340.25;;;2.03;91.38
64095;BME280;50353;51.420;5.682;2023-03-03T08:33:29;102330.66;;;1.93;91.81
64095;BME280;50353;51.420;5.682;2023-03-03T08:35:54;102335.88;;;1.84;91.98
64095;BME280;50353;51.420;5.682;2023-03-03T08:38:20;102339.34;;;1.91;92.71
64095;BME280;50353;51.420;5.682;2023-03-03T08:40:46;102333.28;;;2.02;92.74
64095;BME280;50353;51.420;5.682;2023-03-03T08:43:11;102334.16;;;1.94;93.13
64095;BME280;50353;51.420;5.682;2023-03-03T08:45:41;102344.56;;;2.29;91.74
64095;BME280;50353;51.420;5.682;2023-03-03T08:48:06;102344.56;;;2.12;91.79
64095;BME280;50353;51.420;5.682;2023-03-03T08:50:31;102348.06;;;1.91;92.92
64095;BME280;50353;51.420;5.682;2023-03-03T08:52:56;102350.66;;;2.07;92.22
64095;BME280;50353;51.420;5.682;2023-03-03T08:55:22;102354.16;;;2.02;93.10
64095;BME280;50353;51.420;5.682;2023-03-03T08:57:47;102357.59;;;2.26;93.54
64095;BME280;50353;51.420;5.682;2023-03-03T09:00:13;102359.34;;;2.24;91.63
64095;BME280;50353;51.420;5.682;2023-03-03T09:02:39;102367.19;;;2.06;91.88
64095;BME280;50353;51.420;5.682;2023-03-03T09:05:04;102359.38;;;2.12;91.78
64095;BME280;50353;51.420;5.682;2023-03-03T09:07:30;102349.78;;;2.32;91.64
64095;BME280;50353;51.420;5.682;2023-03-03T09:09:55;102365.44;;;2.26;91.21
64095;BME280;50353;51.420;5.682;2023-03-03T09:12:22;102361.97;;;2.18;92.16
64095;BME280;50353;51.420;5.682;2023-03-03T09:14:49;102361.97;;;2.35;92.07
64095;BME280;50353;51.420;5.682;2023-03-03T09:17:21;102361.03;;;2.58;90.40
64095;BME280;50353;51.420;5.682;2023-03-03T09:19:47;102357.59;;;2.39;92.40
64095;BME280;50353;51.420;5.682;2023-03-03T09:22:17;102364.56;;;2.27;92.17
64095;BME280;50353;51.420;5.682;2023-03-03T09:24:43;102364.56;;;2.26;92.06
64095;BME280;50353;51.420;5.682;2023-03-03T09:27:18;102360.22;;;2.32;91.24
64095;BME280;50353;51.420;5.682;2023-03-03T09:29:43;102372.38;;;2.47;90.89
64095;BME280;50353;51.420;5.682;2023-03-03T09:32:21;102361.94;;;2.57;88.76
64095;BME280;50353;51.420;5.682;2023-03-03T09:34:48;102361.06;;;2.53;89.97
64095;BME280;50353;51.420;5.682;2023-03-03T09:37:20;102361.91;;;2.61;90.09
64095;BME280;50353;51.420;5.682;2023-03-03T09:39:50;102368.88;;;2.59;88.56
64095;BME280;50353;51.420;5.682;2023-03-03T09:42:28;102371.41;;;2.79;88.37
64095;BME280;50353;51.420;5.682;2023-03-03T10:00:31;102381.03;;;2.77;90.13
64095;BME280;50353;51.420;5.682;2023-03-03T10:13:19;102381.75;;;3.13;87.28
64095;BME280;50353;51.420;5.682;2023-03-03T10:15:59;102386.94;;;3.24;85.52
64095;BME280;50353;51.420;5.682;2023-03-03T10:21:03;102387.84;;;3.15;86.70
64095;BME280;50353;51.420;5.682;2023-03-03T10:23:39;102391.16;;;3.56;85.62
64095;BME280;50353;51.420;5.682;2023-03-03T10:26:26;102391.09;;;3.61;84.73
64095;BME280;50353;51.420;5.682;2023-03-03T10:31:55;102384.13;;;3.64;85.13
64095;BME280;50353;51.420;5.682;2023-03-03T10:36:54;102384.88;;;3.79;84.02
64095;BME280;50353;51.420;5.682;2023-03-03T10:47:30;102382.88;;;4.12;82.90
64095;BME280;50353;51.420;5.682;2023-03-03T10:52:38;102371.44;;;4.25;81.60
64095;BME280;50353;51.420;5.682;2023-03-03T11:02:46;102370.31;;;5.27;77.83
64095;BME280;50353;51.420;5.682;2023-03-03T11:07:54;102376.94;;;4.86;77.99
64095;BME280;50353;51.420;5.682;2023-03-03T11:12:49;102365.47;;;4.98;77.29
64095;BME280;50353;51.420;5.682;2023-03-03T11:28:23;102361.50;;;4.58;78.21
64095;BME280;50353;51.420;5.682;2023-03-03T11:30:56;102364.53;;;4.99;78.06
64095;BME280;50353;51.420;5.682;2023-03-03T11:33:26;102358.16;;;5.82;75.08
64095;BME280;50353;51.420;5.682;2023-03-03T11:38:57;102350.88;;;6.03;72.81
64095;BME280;50353;51.420;5.682;2023-03-03T11:46:44;102355.06;;;6.13;73.16
64095;BME280;50353;51.420;5.682;2023-03-03T11:54:45;102352.03;;;6.36;70.67
64095;BME280;50353;51.420;5.682;2023-03-03T11:57:49;102349.84;;;6.60;71.19
64095;BME280;50353;51.420;5.682;2023-03-03T12:03:16;102349.22;;;6.46;70.81
64095;BME280;50353;51.420;5.682;2023-03-03T12:05:26;102346.94;;;6.27;70.14
64095;BME280;50353;51.420;5.682;2023-03-03T12:07:58;102346.31;;;6.61;70.01
64095;BME280;50353;51.420;5.682;2023-03-03T12:10:38;102345.31;;;6.20;70.50
64095;BME280;50353;51.420;5.682;2023-03-03T12:16:17;102341.59;;;6.79;68.12
64095;BME280;50353;51.420;5.682;2023-03-03T12:26:29;102328.81;;;7.44;66.12
64095;BME280;50353;51.420;5.682;2023-03-03T12:28:57;102335.00;;;7.42;66.85
64095;BME280;50353;51.420;5.682;2023-03-03T12:33:54;102333.63;;;7.24;67.88
64095;BME280;50353;51.420;5.682;2023-03-03T12:38:55;102322.97;;;7.69;65.57
64095;BME280;50353;51.420;5.682;2023-03-03T12:41:32;102323.56;;;8.15;67.39
64095;BME280;50353;51.420;5.682;2023-03-03T12:49:11;102326.78;;;7.17;66.50
64095;BME280;50353;51.420;5.682;2023-03-03T12:51:46;102331.84;;;7.26;66.75
64095;BME280;50353;51.420;5.682;2023-03-03T12:59:10;102319.16;;;7.04;67.31
64095;BME280;50353;51.420;5.682;2023-03-03T13:06:56;102314.97;;;7.72;67.63
64095;BME280;50353;51.420;5.682;2023-03-03T13:14:31;102301.38;;;7.91;67.42
64095;BME280;50353;51.420;5.682;2023-03-03T13:17:14;102302.72;;;7.71;66.75
64095;BME280;50353;51.420;5.682;2023-03-03T13:19:50;102294.13;;;7.27;68.34
64095;BME280;50353;51.420;5.682;2023-03-03T13:22:39;102303.00;;;7.59;66.81
64095;BME280;50353;51.420;5.682;2023-03-03T13:27:36;102292.84;;;7.79;66.32
64095;BME280;50353;51.420;5.682;2023-03-03T13:30:03;102292.94;;;7.40;67.31
64095;BME280;50353;51.420;5.682;2023-03-03T13:35:07;102306.41;;;6.86;69.05
64095;BME280;50353;51.420;5.682;2023-03-03T13:37:43;102300.84;;;7.39;66.57
64095;BME280;50353;51.420;5.682;2023-03-03T13:40:15;102289.03;;;7.93;66.60
64095;BME280;50353;51.420;5.682;2023-03-03T13:50:52;102292.63;;;7.89;64.48
64095;BME280;50353;51.420;5.682;2023-03-03T13:56:16;102290.94;;;7.86;64.49
64095;BME280;50353;51.420;5.682;2023-03-03T13:58:51;102280.94;;;7.65;64.09
64095;BME280;50353;51.420;5.682;2023-03-03T14:01:32;102281.16;;;7.57;65.11
64095;BME280;50353;51.420;5.682;2023-03-03T14:04:11;102288.59;;;8.08;66.71
64095;BME280;50353;51.420;5.682;2023-03-03T14:06:38;102285.56;;;7.91;66.24
64095;BME280;50353;51.420;5.682;2023-03-03T14:12:08;102284.22;;;7.38;66.83
64095;BME280;50353;51.420;5.682;2023-03-03T14:14:46;102284.28;;;7.35;66.82
64095;BME280;50353;51.420;5.682;2023-03-03T14:17:18;102277.50;;;7.63;66.77
64095;BME280;50353;51.420;5.682;2023-03-03T14:20:33;102275.22;;;7.83;67.31
64095;BME280;50353;51.420;5.682;2023-03-03T14:22:49;102269.88;;;7.86;66.15
64095;BME280;50353;51.420;5.682;2023-03-03T14:25:16;102276.16;;;7.81;65.40
64095;BME280;50353;51.420;5.682;2023-03-03T14:33:00;102263.94;;;7.78;66.02
64095;BME280;50353;51.420;5.682;2023-03-03T14:35:28;102270.09;;;7.78;66.04
64095;BME280;50353;51.420;5.682;2023-03-03T14:37:54;102271.09;;;7.73;65.79
64095;BME280;50353;51.420;5.682;2023-03-03T14:40:31;102267.41;;;7.80;65.16
64095;BME280;50353;51.420;5.682;2023-03-03T14:43:01;102261.97;;;7.86;66.08
64095;BME280;50353;51.420;5.682;2023-03-03T14:45:33;102262.16;;;7.80;64.55
64095;BME280;50353;51.420;5.682;2023-03-03T14:48:05;102267.16;;;7.89;64.69
64095;BME280;50353;51.420;5.682;2023-03-03T14:50:35;102265.50;;;7.85;63.96
64095;BME280;50353;51.420;5.682;2023-03-03T14:53:11;102262.34;;;7.72;65.20
64095;BME280;50353;51.420;5.682;2023-03-03T14:55:38;102255.34;;;7.35;65.64
64095;BME280;50353;51.420;5.682;2023-03-03T14:58:23;102249.97;;;7.76;65.04
64095;BME280;50353;51.420;5.682;2023-03-03T15:00:49;102250.47;;;7.90;65.89
64095;BME280;50353;51.420;5.682;2023-03-03T15:03:19;102248.00;;;7.84;66.77
64095;BME280;50353;51.420;5.682;2023-03-03T15:05:49;102249.19;;;7.72;66.22
64095;BME280;50353;51.420;5.682;2023-03-03T15:08:15;102242.03;;;7.41;65.96
64095;BME280;50353;51.420;5.682;2023-03-03T15:10:47;102242.41;;;7.97;65.30
64095;BME280;50353;51.420;5.682;2023-03-03T15:15:48;102236.47;;;7.54;65.58
64095;BME280;50353;51.420;5.682;2023-03-03T15:18:15;102233.66;;;7.25;66.68
64095;BME280;50353;51.420;5.682;2023-03-03T15:20:44;102235.50;;;7.22;66.14
64095;BME280;50353;51.420;5.682;2023-03-03T15:26:07;102232.22;;;7.12;66.21
64095;BME280;50353;51.420;5.682;2023-03-03T15:28:38;102232.78;;;7.25;65.99
64095;BME280;50353;51.420;5.682;2023-03-03T15:31:08;102227.06;;;7.09;66.61
64095;BME280;50353;51.420;5.682;2023-03-03T15:36:13;102226.03;;;7.15;66.74
64095;BME280;50353;51.420;5.682;2023-03-03T15:38:48;102224.66;;;6.98;67.23
64095;BME280;50353;51.420;5.682;2023-03-03T15:44:11;102228.53;;;7.19;66.80
64095;BME280;50353;51.420;5.682;2023-03-03T15:49:11;102211.00;;;7.56;65.61
64095;BME280;50353;51.420;5.682;2023-03-03T15:51:51;102221.28;;;7.65;65.07
64095;BME280;50353;51.420;5.682;2023-03-03T15:56:51;102214.69;;;7.49;66.14
64095;BME280;50353;51.420;5.682;2023-03-03T15:59:39;102212.50;;;7.30;66.75
64095;BME280;50353;51.420;5.682;2023-03-03T16:02:20;102207.69;;;7.48;65.92
64095;BME280;50353;51.420;5.682;2023-03-03T16:04:53;102204.47;;;7.36;66.71
64095;BME280;50353;51.420;5.682;2023-03-03T16:10:14;102206.44;;;7.28;65.48
64095;BME280;50353;51.420;5.682;2023-03-03T16:15:20;102217.13;;;7.20;67.21